sensor_id;sensor_type;location;lat;lon;timestamp;temperature;humidity
30244;DHT22;64022;53.652;9.792;2023-08-24T00:01:06;25.20;64.40
30244;DHT22;64022;53.652;9.792;2023-08-24T00:03:32;25.20;64.40
30244;DHT22;64022;53.652;9.792;2023-08-24T00:05:58;25.20;64.40
30244;DHT22;64022;53.652;9.792;2023-08-24T00:08:23;25.20;64.40
30244;DHT22;64022;53.652;9.792;2023-08-24T00:10:49;25.10;64.30
30244;DHT22;64022;53.652;9.792;2023-08-24T00:13:14;25.20;64.40
30244;DHT22;64022;53.652;9.792;2023-08-24T00:15:40;25.10;64.30
30244;DHT22;64022;53.652;9.792;2023-08-24T00:18:06;25.10;64.30
30244;DHT22;64022;53.652;9.792;2023-08-24T00:20:32;25.10;64.30
30244;DHT22;64022;53.652;9.792;2023-08-24T00:23:02;25.10;64.30
30244;DHT22;64022;53.652;9.792;2023-08-24T00:25:28;25.10;64.30
30244;DHT22;64022;53.652;9.792;2023-08-24T00:27:53;25.10;64.90
30244;DHT22;64022;53.652;9.792;2023-08-24T00:30:19;25.10;64.40
30244;DHT22;64022;53.652;9.792;2023-08-24T00:32:44;25.10;64.40
30244;DHT22;64022;53.652;9.792;2023-08-24T00:35:10;25.10;64.40
30244;DHT22;64022;53.652;9.792;2023-08-24T00:37:36;25.10;64.40
30244;DHT22;64022;53.652;9.792;2023-08-24T00:40:02;25.10;64.40
30244;DHT22;64022;53.652;9.792;2023-08-24T00:42:37;25.10;64.40
30244;DHT22;64022;53.652;9.792;2023-08-24T00:45:04;25.10;64.50
30244;DHT22;64022;53.652;9.792;2023-08-24T00:47:29;25.10;64.40
30244;DHT22;64022;53.652;9.792;2023-08-24T00:49:55;25.10;64.50
30244;DHT22;64022;53.652;9.792;2023-08-24T00:52:20;25.10;64.50
30244;DHT22;64022;53.652;9.792;2023-08-24T00:54:46;25.10;64.40
30244;DHT22;64022;53.652;9.792;2023-08-24T00:57:12;25.10;64.40
30244;DHT22;64022;53.652;9.792;2023-08-24T00:59:38;25.10;64.40
30244;DHT22;64022;53.652;9.792;2023-08-24T01:02:04;25.10;64.40
30244;DHT22;64022;53.652;9.792;2023-08-24T01:04:29;25.10;64.40
30244;DHT22;64022;53.652;9.792;2023-08-24T01:06:55;25.10;64.50
30244;DHT22;64022;53.652;9.792;2023-08-24T01:09:20;25.10;64.50
30244;DHT22;64022;53.652;9.792;2023-08-24T01:11:53;25.10;64.50
30244;DHT22;64022;53.652;9.792;2023-08-24T01:14:38;25.10;64.50
30244;DHT22;64022;53.652;9.792;2023-08-24T01:17:05;25.10;64.50
30244;DHT22;64022;53.652;9.792;2023-08-24T01:19:36;25.10;64.50
30244;DHT22;64022;53.652;9.792;2023-08-24T01:22:06;25.10;64.50
30244;DHT22;64022;53.652;9.792;2023-08-24T01:24:38;25.10;64.50
30244;DHT22;64022;53.652;9.792;2023-08-24T01:27:05;25.10;64.50
30244;DHT22;64022;53.652;9.792;2023-08-24T01:29:30;25.10;64.50
30244;DHT22;64022;53.652;9.792;2023-08-24T01:31:56;25.10;64.50
30244;DHT22;64022;53.652;9.792;2023-08-24T01:34:21;25.10;64.50
30244;DHT22;64022;53.652;9.792;2023-08-24T01:36:47;25.00;64.50
30244;DHT22;64022;53.652;9.792;2023-08-24T01:39:31;25.10;64.50
30244;DHT22;64022;53.652;9.792;2023-08-24T01:42:00;25.00;64.50
30244;DHT22;64022;53.652;9.792;2023-08-24T01:44:27;25.00;64.40
30244;DHT22;64022;53.652;9.792;2023-08-24T01:46:53;25.00;64.40
30244;DHT22;64022;53.652;9.792;2023-08-24T01:49:19;25.00;64.50
30244;DHT22;64022;53.652;9.792;2023-08-24T01:51:46;25.00;64.50
30244;DHT22;64022;53.652;9.792;2023-08-24T01:54:11;25.00;64.50
30244;DHT22;64022;53.652;9.792;2023-08-24T01:56:37;25.00;64.50
30244;DHT22;64022;53.652;9.792;2023-08-24T01:59:03;25.00;64.50
30244;DHT22;64022;53.652;9.792;2023-08-24T02:01:28;25.00;64.50
30244;DHT22;64022;53.652;9.792;2023-08-24T02:03:54;25.00;64.50
30244;DHT22;64022;53.652;9.792;2023-08-24T02:06:20;25.00;64.50
30244;DHT22;64022;53.652;9.792;2023-08-24T02:08:45;25.00;64.50
30244;DHT22;64022;53.652;9.792;2023-08-24T02:11:11;25.00;64.50
30244;DHT22;64022;53.652;9.792;2023-08-24T02:13:36;25.00;64.50
30244;DHT22;64022;53.652;9.792;2023-08-24T02:16:05;25.00;64.50
30244;DHT22;64022;53.652;9.792;2023-08-24T02:18:31;25.00;64.50
30244;DHT22;64022;53.652;9.792;2023-08-24T02:20:57;25.00;64.50
30244;DHT22;64022;53.652;9.792;2023-08-24T02:23:22;25.00;64.50
30244;DHT22;64022;53.652;9.792;2023-08-24T02:25:47;24.90;64.40
30244;DHT22;64022;53.652;9.792;2023-08-24T02:28:13;24.90;64.40
30244;DHT22;64022;53.652;9.792;2023-08-24T02:30:38;25.00;64.40
30244;DHT22;64022;53.652;9.792;2023-08-24T02:33:04;24.90;64.30
30244;DHT22;64022;53.652;9.792;2023-08-24T02:35:30;25.00;64.40
30244;DHT22;64022;53.652;9.792;2023-08-24T02:37:55;24.90;64.00
30244;DHT22;64022;53.652;9.792;2023-08-24T02:40:22;24.90;63.50
30244;DHT22;64022;53.652;9.792;2023-08-24T02:42:47;24.70;62.90
30244;DHT22;64022;53.652;9.792;2023-08-24T02:45:13;24.70;62.80
30244;DHT22;64022;53.652;9.792;2023-08-24T02:47:38;24.50;62.50
30244;DHT22;64022;53.652;9.792;2023-08-24T02:50:04;24.40;62.30
30244;DHT22;64022;53.652;9.792;2023-08-24T02:52:31;24.40;62.20
30244;DHT22;64022;53.652;9.792;2023-08-24T02:54:57;24.20;62.10
30244;DHT22;64022;53.652;9.792;2023-08-24T02:57:23;24.10;62.10
30244;DHT22;64022;53.652;9.792;2023-08-24T02:59:48;24.10;62.10
30244;DHT22;64022;53.652;9.792;2023-08-24T03:02:14;24.00;62.00
30244;DHT22;64022;53.652;9.792;2023-08-24T03:04:39;24.00;62.10
30244;DHT22;64022;53.652;9.792;2023-08-24T03:07:05;23.90;62.00
30244;DHT22;64022;53.652;9.792;2023-08-24T03:09:34;23.80;62.00
30244;DHT22;64022;53.652;9.792;2023-08-24T03:11:59;23.70;61.90
30244;DHT22;64022;53.652;9.792;2023-08-24T03:14:25;23.70;61.90
30244;DHT22;64022;53.652;9.792;2023-08-24T03:16:50;23.60;61.90
30244;DHT22;64022;53.652;9.792;2023-08-24T03:19:16;23.60;61.90
30244;DHT22;64022;53.652;9.792;2023-08-24T03:21:43;23.60;61.90
30244;DHT22;64022;53.652;9.792;2023-08-24T03:24:09;23.50;61.90
30244;DHT22;64022;53.652;9.792;2023-08-24T03:26:34;23.40;61.90
30244;DHT22;64022;53.652;9.792;2023-08-24T03:29:00;23.40;61.90
30244;DHT22;64022;53.652;9.792;2023-08-24T03:31:25;23.40;62.00
30244;DHT22;64022;53.652;9.792;2023-08-24T03:33:51;23.30;61.90
30244;DHT22;64022;53.652;9.792;2023-08-24T03:36:17;23.30;62.00
30244;DHT22;64022;53.652;9.792;2023-08-24T03:38:42;23.20;62.00
30244;DHT22;64022;53.652;9.792;2023-08-24T03:41:08;23.20;62.00
30244;DHT22;64022;53.652;9.792;2023-08-24T03:43:34;23.10;62.00
30244;DHT22;64022;53.652;9.792;2023-08-24T03:46:00;23.10;62.10
30244;DHT22;64022;53.652;9.792;2023-08-24T03:48:27;23.10;62.10
30244;DHT22;64022;53.652;9.792;2023-08-24T03:50:56;23.10;62.20
30244;DHT22;64022;53.652;9.792;2023-08-24T03:53:22;23.00;62.20
30244;DHT22;64022;53.652;9.792;2023-08-24T03:55:48;23.00;62.20
30244;DHT22;64022;53.652;9.792;2023-08-24T03:58:14;23.00;62.20
30244;DHT22;64022;53.652;9.792;2023-08-24T04:00:39;22.90;62.20
30244;DHT22;64022;53.652;9.792;2023-08-24T04:03:07;22.90;62.20
30244;DHT22;64022;53.652;9.792;2023-08-24T04:05:32;22.90;62.30
30244;DHT22;64022;53.652;9.792;2023-08-24T04:07:58;22.80;62.30
30244;DHT22;64022;53.652;9.792;2023-08-24T04:10:25;22.80;62.30
30244;DHT22;64022;53.652;9.792;2023-08-24T04:12:51;22.70;62.30
30244;DHT22;64022;53.652;9.792;2023-08-24T04:15:16;22.70;62.40
30244;DHT22;64022;53.652;9.792;2023-08-24T04:17:42;22.70;62.40
30244;DHT22;64022;53.652;9.792;2023-08-24T04:20:07;22.70;62.30
30244;DHT22;64022;53.652;9.792;2023-08-24T04:22:33;22.60;62.30
30244;DHT22;64022;53.652;9.792;2023-08-24T04:24:58;22.60;62.30
30244;DHT22;64022;53.652;9.792;2023-08-24T04:27:25;22.60;62.40
30244;DHT22;64022;53.652;9.792;2023-08-24T04:29:50;22.50;62.40
30244;DHT22;64022;53.652;9.792;2023-08-24T04:32:16;22.50;62.40
30244;DHT22;64022;53.652;9.792;2023-08-24T04:34:42;22.40;62.40
30244;DHT22;64022;53.652;9.792;2023-08-24T04:37:07;22.40;62.40
30244;DHT22;64022;53.652;9.792;2023-08-24T04:39:32;22.40;62.50
30244;DHT22;64022;53.652;9.792;2023-08-24T04:41:58;22.40;62.60
30244;DHT22;64022;53.652;9.792;2023-08-24T04:44:23;22.40;62.70
30244;DHT22;64022;53.652;9.792;2023-08-24T04:46:49;22.30;62.60
30244;DHT22;64022;53.652;9.792;2023-08-24T04:49:15;22.30;62.60
30244;DHT22;64022;53.652;9.792;2023-08-24T04:51:40;22.30;62.70
30244;DHT22;64022;53.652;9.792;2023-08-24T04:54:06;22.30;62.70
30244;DHT22;64022;53.652;9.792;2023-08-24T04:56:31;22.30;62.80
30244;DHT22;64022;53.652;9.792;2023-08-24T04:58:57;22.20;62.80
30244;DHT22;64022;53.652;9.792;2023-08-24T05:01:23;22.20;62.80
30244;DHT22;64022;53.652;9.792;2023-08-24T05:03:50;22.20;62.90
30244;DHT22;64022;53.652;9.792;2023-08-24T05:06:16;22.20;63.50
30244;DHT22;64022;53.652;9.792;2023-08-24T05:08:41;22.20;62.90
30244;DHT22;64022;53.652;9.792;2023-08-24T05:11:10;22.10;62.80
30244;DHT22;64022;53.652;9.792;2023-08-24T05:13:35;22.10;62.70
30244;DHT22;64022;53.652;9.792;2023-08-24T05:16:01;22.10;62.80
30244;DHT22;64022;53.652;9.792;2023-08-24T05:18:26;22.00;62.80
30244;DHT22;64022;53.652;9.792;2023-08-24T05:20:51;22.00;62.90
30244;DHT22;64022;53.652;9.792;2023-08-24T05:23:17;21.90;63.00
30244;DHT22;64022;53.652;9.792;2023-08-24T05:25:42;21.90;63.20
30244;DHT22;64022;53.652;9.792;2023-08-24T05:28:08;21.90;63.20
30244;DHT22;64022;53.652;9.792;2023-08-24T05:30:33;21.90;63.30
30244;DHT22;64022;53.652;9.792;2023-08-24T05:32:59;21.90;63.40
30244;DHT22;64022;53.652;9.792;2023-08-24T05:35:24;21.90;63.60
30244;DHT22;64022;53.652;9.792;2023-08-24T05:37:52;21.90;63.70
30244;DHT22;64022;53.652;9.792;2023-08-24T05:40:18;21.80;63.70
30244;DHT22;64022;53.652;9.792;2023-08-24T05:42:43;21.90;63.90
30244;DHT22;64022;53.652;9.792;2023-08-24T05:45:09;21.80;63.80
30244;DHT22;64022;53.652;9.792;2023-08-24T05:47:34;21.80;64.00
30244;DHT22;64022;53.652;9.792;2023-08-24T05:50:00;21.80;64.20
30244;DHT22;64022;53.652;9.792;2023-08-24T05:52:25;21.80;64.30
30244;DHT22;64022;53.652;9.792;2023-08-24T05:54:50;21.80;64.40
30244;DHT22;64022;53.652;9.792;2023-08-24T05:57:16;21.80;64.70
30244;DHT22;64022;53.652;9.792;2023-08-24T05:59:41;21.80;64.80
30244;DHT22;64022;53.652;9.792;2023-08-24T06:02:07;21.90;65.00
30244;DHT22;64022;53.652;9.792;2023-08-24T06:04:32;21.90;65.00
30244;DHT22;64022;53.652;9.792;2023-08-24T06:06:58;21.90;65.10
30244;DHT22;64022;53.652;9.792;2023-08-24T06:09:23;21.90;65.20
30244;DHT22;64022;53.652;9.792;2023-08-24T06:11:49;21.90;65.30
30244;DHT22;64022;53.652;9.792;2023-08-24T06:14:14;21.90;65.40
30244;DHT22;64022;53.652;9.792;2023-08-24T06:16:40;21.90;65.50
30244;DHT22;64022;53.652;9.792;2023-08-24T06:19:06;21.90;65.70
30244;DHT22;64022;53.652;9.792;2023-08-24T06:21:31;21.90;65.80
30244;DHT22;64022;53.652;9.792;2023-08-24T06:23:56;21.90;65.90
30244;DHT22;64022;53.652;9.792;2023-08-24T06:26:22;22.00;66.10
30244;DHT22;64022;53.652;9.792;2023-08-24T06:28:47;22.00;66.20
30244;DHT22;64022;53.652;9.792;2023-08-24T06:31:13;22.00;66.30
30244;DHT22;64022;53.652;9.792;2023-08-24T06:33:39;22.10;66.40
30244;DHT22;64022;53.652;9.792;2023-08-24T06:36:05;22.10;66.50
30244;DHT22;64022;53.652;9.792;2023-08-24T06:38:31;22.10;66.60
30244;DHT22;64022;53.652;9.792;2023-08-24T06:40:59;22.10;66.80
30244;DHT22;64022;53.652;9.792;2023-08-24T06:43:25;22.10;66.80
30244;DHT22;64022;53.652;9.792;2023-08-24T06:45:51;22.20;66.90
30244;DHT22;64022;53.652;9.792;2023-08-24T06:48:16;22.20;66.90
30244;DHT22;64022;53.652;9.792;2023-08-24T06:50:43;22.20;67.00
30244;DHT22;64022;53.652;9.792;2023-08-24T06:53:08;22.30;67.10
30244;DHT22;64022;53.652;9.792;2023-08-24T06:55:34;22.30;67.20
30244;DHT22;64022;53.652;9.792;2023-08-24T06:57:59;22.30;67.30
30244;DHT22;64022;53.652;9.792;2023-08-24T07:00:25;22.40;67.50
30244;DHT22;64022;53.652;9.792;2023-08-24T07:02:51;22.40;67.50
30244;DHT22;64022;53.652;9.792;2023-08-24T07:05:16;22.50;67.70
30244;DHT22;64022;53.652;9.792;2023-08-24T07:07:45;22.50;67.70
30244;DHT22;64022;53.652;9.792;2023-08-24T07:10:11;22.50;67.70
30244;DHT22;64022;53.652;9.792;2023-08-24T07:12:36;22.50;67.70
30244;DHT22;64022;53.652;9.792;2023-08-24T07:15:03;22.60;67.80
30244;DHT22;64022;53.652;9.792;2023-08-24T07:17:28;22.60;67.80
30244;DHT22;64022;53.652;9.792;2023-08-24T07:19:54;22.60;67.80
30244;DHT22;64022;53.652;9.792;2023-08-24T07:22:19;22.70;67.90
30244;DHT22;64022;53.652;9.792;2023-08-24T07:24:45;22.70;67.90
30244;DHT22;64022;53.652;9.792;2023-08-24T07:27:10;22.70;67.90
30244;DHT22;64022;53.652;9.792;2023-08-24T07:29:36;22.80;68.00
30244;DHT22;64022;53.652;9.792;2023-08-24T07:32:01;22.80;68.00
30244;DHT22;64022;53.652;9.792;2023-08-24T07:34:28;22.80;68.00
30244;DHT22;64022;53.652;9.792;2023-08-24T07:36:54;22.80;68.00
30244;DHT22;64022;53.652;9.792;2023-08-24T07:39:20;22.90;68.00
30244;DHT22;64022;53.652;9.792;2023-08-24T07:41:45;22.90;68.10
30244;DHT22;64022;53.652;9.792;2023-08-24T07:44:11;23.00;68.10
30244;DHT22;64022;53.652;9.792;2023-08-24T07:46:38;23.00;68.10
30244;DHT22;64022;53.652;9.792;2023-08-24T07:49:04;23.00;68.10
30244;DHT22;64022;53.652;9.792;2023-08-24T07:51:29;23.10;68.20
30244;DHT22;64022;53.652;9.792;2023-08-24T07:53:55;23.10;68.20
30244;DHT22;64022;53.652;9.792;2023-08-24T07:56:20;23.10;68.20
30244;DHT22;64022;53.652;9.792;2023-08-24T07:58:46;23.20;68.20
30244;DHT22;64022;53.652;9.792;2023-08-24T08:01:11;23.20;68.20
30244;DHT22;64022;53.652;9.792;2023-08-24T08:03:37;23.20;68.20
30244;DHT22;64022;53.652;9.792;2023-08-24T08:06:02;23.30;68.20
30244;DHT22;64022;53.652;9.792;2023-08-24T08:08:28;23.30;68.20
30244;DHT22;64022;53.652;9.792;2023-08-24T08:10:57;23.30;68.20
30244;DHT22;64022;53.652;9.792;2023-08-24T08:13:23;23.40;68.30
30244;DHT22;64022;53.652;9.792;2023-08-24T08:15:49;23.40;68.20
30244;DHT22;64022;53.652;9.792;2023-08-24T08:18:14;23.40;68.20
30244;DHT22;64022;53.652;9.792;2023-08-24T08:20:40;23.50;68.20
30244;DHT22;64022;53.652;9.792;2023-08-24T08:23:05;23.50;68.20
30244;DHT22;64022;53.652;9.792;2023-08-24T08:25:30;23.50;68.20
30244;DHT22;64022;53.652;9.792;2023-08-24T08:27:56;23.50;68.20
30244;DHT22;64022;53.652;9.792;2023-08-24T08:30:21;23.50;68.10
30244;DHT22;64022;53.652;9.792;2023-08-24T08:32:47;23.60;68.70
30244;DHT22;64022;53.652;9.792;2023-08-24T08:35:13;23.60;68.10
30244;DHT22;64022;53.652;9.792;2023-08-24T08:37:38;23.60;68.10
30244;DHT22;64022;53.652;9.792;2023-08-24T08:40:04;23.60;68.00
30244;DHT22;64022;53.652;9.792;2023-08-24T08:42:34;23.60;68.00
30244;DHT22;64022;53.652;9.792;2023-08-24T08:45:00;23.70;68.00
30244;DHT22;64022;53.652;9.792;2023-08-24T08:47:28;23.70;68.00
30244;DHT22;64022;53.652;9.792;2023-08-24T08:49:53;23.70;68.00
30244;DHT22;64022;53.652;9.792;2023-08-24T08:52:20;23.70;67.90
30244;DHT22;64022;53.652;9.792;2023-08-24T08:54:45;23.80;67.90
30244;DHT22;64022;53.652;9.792;2023-08-24T08:57:11;23.80;67.90
30244;DHT22;64022;53.652;9.792;2023-08-24T08:59:37;23.80;67.90
30244;DHT22;64022;53.652;9.792;2023-08-24T09:02:03;23.80;67.80
30244;DHT22;64022;53.652;9.792;2023-08-24T09:04:29;23.90;67.80
30244;DHT22;64022;53.652;9.792;2023-08-24T09:06:55;23.90;67.80
30244;DHT22;64022;53.652;9.792;2023-08-24T09:09:21;23.90;67.80
30244;DHT22;64022;53.652;9.792;2023-08-24T09:11:48;23.90;67.70
30244;DHT22;64022;53.652;9.792;2023-08-24T09:14:13;23.90;67.70
30244;DHT22;64022;53.652;9.792;2023-08-24T09:16:40;23.90;67.60
30244;DHT22;64022;53.652;9.792;2023-08-24T09:19:06;23.90;67.60
30244;DHT22;64022;53.652;9.792;2023-08-24T09:21:38;23.90;67.60
30244;DHT22;64022;53.652;9.792;2023-08-24T09:24:04;24.00;67.60
30244;DHT22;64022;53.652;9.792;2023-08-24T09:26:30;23.90;67.50
30244;DHT22;64022;53.652;9.792;2023-08-24T09:28:56;24.00;67.50
30244;DHT22;64022;53.652;9.792;2023-08-24T09:31:22;24.00;67.50
30244;DHT22;64022;53.652;9.792;2023-08-24T09:33:47;24.00;67.40
30244;DHT22;64022;53.652;9.792;2023-08-24T09:36:13;24.00;67.40
30244;DHT22;64022;53.652;9.792;2023-08-24T09:38:45;24.00;67.30
30244;DHT22;64022;53.652;9.792;2023-08-24T09:41:10;24.00;67.30
30244;DHT22;64022;53.652;9.792;2023-08-24T09:43:36;24.00;67.30
30244;DHT22;64022;53.652;9.792;2023-08-24T09:46:01;24.10;67.30
30244;DHT22;64022;53.652;9.792;2023-08-24T09:48:28;24.10;67.30
30244;DHT22;64022;53.652;9.792;2023-08-24T09:50:53;24.10;67.20
30244;DHT22;64022;53.652;9.792;2023-08-24T09:53:22;24.10;67.20
30244;DHT22;64022;53.652;9.792;2023-08-24T09:56:09;24.10;67.10
30244;DHT22;64022;53.652;9.792;2023-08-24T09:58:34;24.10;67.10
30244;DHT22;64022;53.652;9.792;2023-08-24T10:00:59;24.10;67.10
30244;DHT22;64022;53.652;9.792;2023-08-24T10:03:26;24.20;67.10
30244;DHT22;64022;53.652;9.792;2023-08-24T10:05:56;24.20;67.00
30244;DHT22;64022;53.652;9.792;2023-08-24T10:08:29;24.20;67.00
30244;DHT22;64022;53.652;9.792;2023-08-24T10:10:59;24.20;66.90
30244;DHT22;64022;53.652;9.792;2023-08-24T10:13:37;24.20;66.90
30244;DHT22;64022;53.652;9.792;2023-08-24T10:16:04;24.20;66.90
30244;DHT22;64022;53.652;9.792;2023-08-24T10:18:30;24.20;66.80
30244;DHT22;64022;53.652;9.792;2023-08-24T10:20:56;24.20;66.80
30244;DHT22;64022;53.652;9.792;2023-08-24T10:23:21;24.20;66.80
30244;DHT22;64022;53.652;9.792;2023-08-24T10:25:47;24.20;66.70
30244;DHT22;64022;53.652;9.792;2023-08-24T10:28:15;24.30;66.70
30244;DHT22;64022;53.652;9.792;2023-08-24T10:30:42;24.30;66.70
30244;DHT22;64022;53.652;9.792;2023-08-24T10:33:09;24.30;66.60
30244;DHT22;64022;53.652;9.792;2023-08-24T10:35:36;24.30;66.60
30244;DHT22;64022;53.652;9.792;2023-08-24T10:38:02;24.30;66.60
30244;DHT22;64022;53.652;9.792;2023-08-24T10:40:37;24.30;66.50
30244;DHT22;64022;53.652;9.792;2023-08-24T10:43:09;24.30;66.50
30244;DHT22;64022;53.652;9.792;2023-08-24T10:48:18;24.30;66.50
30244;DHT22;64022;53.652;9.792;2023-08-24T10:50:59;24.40;66.50
30244;DHT22;64022;53.652;9.792;2023-08-24T10:53:39;24.40;67.00
30244;DHT22;64022;53.652;9.792;2023-08-24T10:56:11;24.40;66.40
30244;DHT22;64022;53.652;9.792;2023-08-24T10:58:37;24.40;66.40
30244;DHT22;64022;53.652;9.792;2023-08-24T11:01:02;24.40;66.30
30244;DHT22;64022;53.652;9.792;2023-08-24T11:03:31;24.40;66.30
30244;DHT22;64022;53.652;9.792;2023-08-24T11:05:57;24.40;66.30
30244;DHT22;64022;53.652;9.792;2023-08-24T11:08:23;24.40;66.30
30244;DHT22;64022;53.652;9.792;2023-08-24T11:11:17;24.40;66.20
30244;DHT22;64022;53.652;9.792;2023-08-24T11:14:12;24.40;66.20
30244;DHT22;64022;53.652;9.792;2023-08-24T11:16:38;24.40;66.20
30244;DHT22;64022;53.652;9.792;2023-08-24T11:19:04;24.50;66.20
30244;DHT22;64022;53.652;9.792;2023-08-24T11:21:30;24.50;66.20
30244;DHT22;64022;53.652;9.792;2023-08-24T11:23:55;24.40;66.10
30244;DHT22;64022;53.652;9.792;2023-08-24T11:26:21;24.50;66.10
30244;DHT22;64022;53.652;9.792;2023-08-24T11:28:47;24.50;66.10
30244;DHT22;64022;53.652;9.792;2023-08-24T11:31:18;24.50;66.10
30244;DHT22;64022;53.652;9.792;2023-08-24T11:33:43;24.50;66.00
30244;DHT22;64022;53.652;9.792;2023-08-24T11:36:09;24.50;66.00
30244;DHT22;64022;53.652;9.792;2023-08-24T11:38:35;24.50;66.00
30244;DHT22;64022;53.652;9.792;2023-08-24T11:41:01;24.50;65.90
30244;DHT22;64022;53.652;9.792;2023-08-24T11:43:26;24.50;65.90
30244;DHT22;64022;53.652;9.792;2023-08-24T11:45:53;24.50;65.90
30244;DHT22;64022;53.652;9.792;2023-08-24T11:48:18;24.60;65.90
30244;DHT22;64022;53.652;9.792;2023-08-24T11:50:44;24.60;65.90
30244;DHT22;64022;53.652;9.792;2023-08-24T11:53:10;24.60;65.90
30244;DHT22;64022;53.652;9.792;2023-08-24T11:55:39;24.60;65.80
30244;DHT22;64022;53.652;9.792;2023-08-24T11:58:04;24.60;65.80
30244;DHT22;64022;53.652;9.792;2023-08-24T12:00:30;24.60;65.80
30244;DHT22;64022;53.652;9.792;2023-08-24T12:02:56;24.70;65.80
30244;DHT22;64022;53.652;9.792;2023-08-24T12:05:26;24.70;65.80
30244;DHT22;64022;53.652;9.792;2023-08-24T12:07:52;24.70;65.80
30244;DHT22;64022;53.652;9.792;2023-08-24T12:10:17;24.70;65.70
30244;DHT22;64022;53.652;9.792;2023-08-24T12:12:43;24.70;65.70
30244;DHT22;64022;53.652;9.792;2023-08-24T12:15:14;24.70;65.70
30244;DHT22;64022;53.652;9.792;2023-08-24T12:17:44;24.70;65.70
30244;DHT22;64022;53.652;9.792;2023-08-24T12:20:16;24.70;65.70
30244;DHT22;64022;53.652;9.792;2023-08-24T12:22:42;24.70;65.70
30244;DHT22;64022;53.652;9.792;2023-08-24T12:25:07;24.70;65.60
30244;DHT22;64022;53.652;9.792;2023-08-24T12:27:33;24.70;65.60
30244;DHT22;64022;53.652;9.792;2023-08-24T12:30:01;24.70;65.60
30244;DHT22;64022;53.652;9.792;2023-08-24T12:32:28;24.80;65.60
30244;DHT22;64022;53.652;9.792;2023-08-24T12:35:06;24.70;65.50
30244;DHT22;64022;53.652;9.792;2023-08-24T12:37:32;24.80;65.50
30244;DHT22;64022;53.652;9.792;2023-08-24T12:39:57;24.80;65.50
30244;DHT22;64022;53.652;9.792;2023-08-24T12:42:23;24.80;65.50
30244;DHT22;64022;53.652;9.792;2023-08-24T12:44:48;24.80;65.40
30244;DHT22;64022;53.652;9.792;2023-08-24T12:47:13;24.80;65.40
30244;DHT22;64022;53.652;9.792;2023-08-24T12:49:39;24.80;65.40
30244;DHT22;64022;53.652;9.792;2023-08-24T12:52:04;24.80;65.40
30244;DHT22;64022;53.652;9.792;2023-08-24T12:54:30;24.80;65.40
30244;DHT22;64022;53.652;9.792;2023-08-24T12:56:55;24.90;65.40
30244;DHT22;64022;53.652;9.792;2023-08-24T12:59:21;24.90;65.40
30244;DHT22;64022;53.652;9.792;2023-08-24T13:01:48;24.90;65.30
30244;DHT22;64022;53.652;9.792;2023-08-24T13:04:13;24.90;65.30
30244;DHT22;64022;53.652;9.792;2023-08-24T13:06:38;24.90;65.30
30244;DHT22;64022;53.652;9.792;2023-08-24T13:09:04;24.90;65.30
30244;DHT22;64022;53.652;9.792;2023-08-24T13:11:31;24.90;65.20
30244;DHT22;64022;53.652;9.792;2023-08-24T13:13:57;24.90;65.20
30244;DHT22;64022;53.652;9.792;2023-08-24T13:16:22;24.90;65.20
30244;DHT22;64022;53.652;9.792;2023-08-24T13:18:48;24.90;65.20
30244;DHT22;64022;53.652;9.792;2023-08-24T13:21:13;24.90;65.10
30244;DHT22;64022;53.652;9.792;2023-08-24T13:23:39;24.90;65.10
30244;DHT22;64022;53.652;9.792;2023-08-24T13:26:04;25.00;65.10
30244;DHT22;64022;53.652;9.792;2023-08-24T13:28:29;24.90;65.10
30244;DHT22;64022;53.652;9.792;2023-08-24T13:30:55;25.00;65.10
30244;DHT22;64022;53.652;9.792;2023-08-24T13:33:20;25.00;65.00
30244;DHT22;64022;53.652;9.792;2023-08-24T13:35:46;25.00;65.00
30244;DHT22;64022;53.652;9.792;2023-08-24T13:38:11;25.00;65.00
30244;DHT22;64022;53.652;9.792;2023-08-24T13:40:37;25.00;64.90
30244;DHT22;64022;53.652;9.792;2023-08-24T13:43:02;25.00;64.90
30244;DHT22;64022;53.652;9.792;2023-08-24T13:45:28;25.00;64.90
30244;DHT22;64022;53.652;9.792;2023-08-24T13:47:56;25.00;64.80
30244;DHT22;64022;53.652;9.792;2023-08-24T13:50:21;25.00;64.80
30244;DHT22;64022;53.652;9.792;2023-08-24T13:52:46;25.00;64.80
30244;DHT22;64022;53.652;9.792;2023-08-24T13:55:12;25.00;64.70
30244;DHT22;64022;53.652;9.792;2023-08-24T13:57:37;25.10;64.80
30244;DHT22;64022;53.652;9.792;2023-08-24T14:00:03;25.00;64.70
30244;DHT22;64022;53.652;9.792;2023-08-24T14:02:29;25.10;64.80
30244;DHT22;64022;53.652;9.792;2023-08-24T14:04:55;25.10;64.70
30244;DHT22;64022;53.652;9.792;2023-08-24T14:07:20;25.10;64.70
30244;DHT22;64022;53.652;9.792;2023-08-24T14:09:46;25.10;64.70
30244;DHT22;64022;53.652;9.792;2023-08-24T14:12:11;25.10;65.20
30244;DHT22;64022;53.652;9.792;2023-08-24T14:14:37;25.10;64.70
30244;DHT22;64022;53.652;9.792;2023-08-24T14:17:02;25.10;64.70
30244;DHT22;64022;53.652;9.792;2023-08-24T14:19:28;25.10;64.70
30244;DHT22;64022;53.652;9.792;2023-08-24T14:21:53;25.10;64.70
30244;DHT22;64022;53.652;9.792;2023-08-24T14:24:19;25.10;64.70
30244;DHT22;64022;53.652;9.792;2023-08-24T14:26:44;25.20;64.70
30244;DHT22;64022;53.652;9.792;2023-08-24T14:29:13;25.20;64.70
30244;DHT22;64022;53.652;9.792;2023-08-24T14:31:39;25.20;64.60
30244;DHT22;64022;53.652;9.792;2023-08-24T14:34:04;25.20;64.60
30244;DHT22;64022;53.652;9.792;2023-08-24T14:36:30;25.20;64.60
30244;DHT22;64022;53.652;9.792;2023-08-24T14:38:56;25.20;64.60
30244;DHT22;64022;53.652;9.792;2023-08-24T14:41:21;25.20;64.60
30244;DHT22;64022;53.652;9.792;2023-08-24T14:43:47;25.20;64.60
30244;DHT22;64022;53.652;9.792;2023-08-24T14:46:12;25.30;64.60
30244;DHT22;64022;53.652;9.792;2023-08-24T14:48:38;25.30;64.60
30244;DHT22;64022;53.652;9.792;2023-08-24T14:51:04;25.20;64.50
30244;DHT22;64022;53.652;9.792;2023-08-24T14:53:30;25.30;64.60
30244;DHT22;64022;53.652;9.792;2023-08-24T14:55:55;25.30;64.50
30244;DHT22;64022;53.652;9.792;2023-08-24T14:58:21;25.30;64.70
30244;DHT22;64022;53.652;9.792;2023-08-24T15:00:47;25.30;64.50
30244;DHT22;64022;53.652;9.792;2023-08-24T15:03:13;25.30;64.50
30244;DHT22;64022;53.652;9.792;2023-08-24T15:05:46;25.30;64.50
30244;DHT22;64022;53.652;9.792;2023-08-24T15:08:12;25.30;64.40
30244;DHT22;64022;53.652;9.792;2023-08-24T15:10:38;25.30;64.40
30244;DHT22;64022;53.652;9.792;2023-08-24T15:13:04;25.30;64.40
30244;DHT22;64022;53.652;9.792;2023-08-24T15:15:30;25.30;64.40
30244;DHT22;64022;53.652;9.792;2023-08-24T15:17:55;25.30;64.40
30244;DHT22;64022;53.652;9.792;2023-08-24T15:20:21;25.40;64.50
30244;DHT22;64022;53.652;9.792;2023-08-24T15:22:46;25.40;64.40
30244;DHT22;64022;53.652;9.792;2023-08-24T15:25:11;25.40;64.40
30244;DHT22;64022;53.652;9.792;2023-08-24T15:27:37;25.40;64.40